sensor_id;sensor_type;location;lat;lon;timestamp;P1;durP1;ratioP1;P2;durP2;ratioP2
13335;SDS011;6737;51.480;11.962;2023-04-19T00:01:48;7.67;;;3.60;;
13335;SDS011;6737;51.480;11.962;2023-04-19T00:04:14;5.10;;;3.10;;
13335;SDS011;6737;51.480;11.962;2023-04-19T00:06:40;4.63;;;3.20;;
13335;SDS011;6737;51.480;11.962;2023-04-19T00:09:06;4.83;;;3.50;;
13335;SDS011;6737;51.480;11.962;2023-04-19T00:11:33;5.60;;;3.47;;
13335;SDS011;6737;51.480;11.962;2023-04-19T00:13:59;6.17;;;3.60;;
13335;SDS011;6737;51.480;11.962;2023-04-19T00:16:24;5.30;;;3.80;;
13335;SDS011;6737;51.480;11.962;2023-04-19T00:18:50;4.63;;;3.13;;
13335;SDS011;6737;51.480;11.962;2023-04-19T00:21:16;4.60;;;3.50;;
13335;SDS011;6737;51.480;11.962;2023-04-19T00:23:41;5.73;;;3.70;;
13335;SDS011;6737;51.480;11.962;2023-04-19T00:26:07;5.73;;;3.80;;
13335;SDS011;6737;51.480;11.962;2023-04-19T00:28:35;5.83;;;3.63;;
13335;SDS011;6737;51.480;11.962;2023-04-19T00:31:01;6.27;;;3.60;;
13335;SDS011;6737;51.480;11.962;2023-04-19T00:33:27;4.97;;;3.60;;
13335;SDS011;6737;51.480;11.962;2023-04-19T00:35:53;6.90;;;3.43;;
13335;SDS011;6737;51.480;11.962;2023-04-19T00:38:18;6.03;;;3.80;;
13335;SDS011;6737;51.480;11.962;2023-04-19T00:40:44;5.17;;;3.90;;
13335;SDS011;6737;51.480;11.962;2023-04-19T00:43:11;6.40;;;3.87;;
13335;SDS011;6737;51.480;11.962;2023-04-19T00:45:41;5.73;;;4.13;;
13335;SDS011;6737;51.480;11.962;2023-04-19T00:48:06;5.73;;;3.80;;
13335;SDS011;6737;51.480;11.962;2023-04-19T00:50:33;5.77;;;4.10;;
13335;SDS011;6737;51.480;11.962;2023-04-19T00:53:00;8.40;;;4.40;;
13335;SDS011;6737;51.480;11.962;2023-04-19T00:55:26;7.50;;;4.50;;
13335;SDS011;6737;51.480;11.962;2023-04-19T00:57:52;7.70;;;4.60;;
13335;SDS011;6737;51.480;11.962;2023-04-19T01:00:18;5.97;;;4.20;;
13335;SDS011;6737;51.480;11.962;2023-04-19T01:02:44;5.53;;;4.47;;
13335;SDS011;6737;51.480;11.962;2023-04-19T01:05:11;5.93;;;4.40;;
13335;SDS011;6737;51.480;11.962;2023-04-19T01:07:37;5.20;;;4.10;;
13335;SDS011;6737;51.480;11.962;2023-04-19T01:10:03;6.50;;;4.30;;
13335;SDS011;6737;51.480;11.962;2023-04-19T01:12:30;7.50;;;4.70;;
13335;SDS011;6737;51.480;11.962;2023-04-19T01:14:55;8.17;;;5.03;;
13335;SDS011;6737;51.480;11.962;2023-04-19T01:17:21;7.70;;;5.35;;
13335;SDS011;6737;51.480;11.962;2023-04-19T01:19:47;9.35;;;5.57;;
13335;SDS011;6737;51.480;11.962;2023-04-19T01:22:19;8.98;;;5.68;;
13335;SDS011;6737;51.480;11.962;2023-04-19T01:24:49;8.75;;;5.85;;
13335;SDS011;6737;51.480;11.962;2023-04-19T01:27:15;8.35;;;6.10;;
13335;SDS011;6737;51.480;11.962;2023-04-19T01:29:41;8.60;;;6.32;;
13335;SDS011;6737;51.480;11.962;2023-04-19T01:32:08;8.90;;;6.10;;
13335;SDS011;6737;51.480;11.962;2023-04-19T01:34:34;8.90;;;6.33;;
13335;SDS011;6737;51.480;11.962;2023-04-19T01:36:59;10.27;;;6.53;;
13335;SDS011;6737;51.480;11.962;2023-04-19T01:39:25;8.70;;;6.45;;
13335;SDS011;6737;51.480;11.962;2023-04-19T01:41:51;10.82;;;6.70;;
13335;SDS011;6737;51.480;11.962;2023-04-19T01:44:17;8.73;;;6.40;;
13335;SDS011;6737;51.480;11.962;2023-04-19T01:46:42;8.10;;;6.40;;
13335;SDS011;6737;51.480;11.962;2023-04-19T01:49:08;9.90;;;6.43;;
13335;SDS011;6737;51.480;11.962;2023-04-19T01:51:35;9.88;;;6.50;;
13335;SDS011;6737;51.480;11.962;2023-04-19T01:54:02;8.32;;;6.20;;
13335;SDS011;6737;51.480;11.962;2023-04-19T01:56:28;9.38;;;6.13;;
13335;SDS011;6737;51.480;11.962;2023-04-19T01:58:54;8.15;;;6.25;;
13335;SDS011;6737;51.480;11.962;2023-04-19T02:01:20;8.90;;;6.03;;
13335;SDS011;6737;51.480;11.962;2023-04-19T02:03:46;9.60;;;5.90;;
13335;SDS011;6737;51.480;11.962;2023-04-19T02:06:12;8.75;;;5.75;;
13335;SDS011;6737;51.480;11.962;2023-04-19T02:08:38;8.45;;;5.90;;
13335;SDS011;6737;51.480;11.962;2023-04-19T02:11:09;8.52;;;5.60;;
13335;SDS011;6737;51.480;11.962;2023-04-19T02:13:38;8.03;;;5.40;;
13335;SDS011;6737;51.480;11.962;2023-04-19T02:16:04;11.70;;;5.10;;
13335;SDS011;6737;51.480;11.962;2023-04-19T02:18:31;7.00;;;4.80;;
13335;SDS011;6737;51.480;11.962;2023-04-19T02:20:57;6.93;;;4.50;;
13335;SDS011;6737;51.480;11.962;2023-04-19T02:23:23;8.03;;;4.93;;
13335;SDS011;6737;51.480;11.962;2023-04-19T02:25:50;7.33;;;4.50;;
13335;SDS011;6737;51.480;11.962;2023-04-19T02:28:16;7.63;;;4.50;;
13335;SDS011;6737;51.480;11.962;2023-04-19T02:30:42;8.03;;;4.13;;
13335;SDS011;6737;51.480;11.962;2023-04-19T02:33:08;7.03;;;4.07;;
13335;SDS011;6737;51.480;11.962;2023-04-19T02:35:33;6.83;;;3.93;;
13335;SDS011;6737;51.480;11.962;2023-04-19T02:38:02;5.97;;;4.00;;
13335;SDS011;6737;51.480;11.962;2023-04-19T02:40:29;7.83;;;3.83;;
13335;SDS011;6737;51.480;11.962;2023-04-19T02:42:55;8.20;;;4.10;;
13335;SDS011;6737;51.480;11.962;2023-04-19T02:45:21;6.43;;;4.00;;
13335;SDS011;6737;51.480;11.962;2023-04-19T02:47:47;8.07;;;3.60;;
13335;SDS011;6737;51.480;11.962;2023-04-19T02:50:13;6.43;;;3.90;;
13335;SDS011;6737;51.480;11.962;2023-04-19T02:52:40;7.83;;;3.87;;
13335;SDS011;6737;51.480;11.962;2023-04-19T02:55:06;4.90;;;3.57;;
13335;SDS011;6737;51.480;11.962;2023-04-19T02:57:32;7.97;;;3.50;;
13335;SDS011;6737;51.480;11.962;2023-04-19T02:59:58;5.13;;;3.50;;
13335;SDS011;6737;51.480;11.962;2023-04-19T03:02:24;7.03;;;3.60;;
13335;SDS011;6737;51.480;11.962;2023-04-19T03:04:50;6.07;;;3.27;;
13335;SDS011;6737;51.480;11.962;2023-04-19T03:07:17;4.90;;;3.33;;
13335;SDS011;6737;51.480;11.962;2023-04-19T03:09:43;5.07;;;3.27;;
13335;SDS011;6737;51.480;11.962;2023-04-19T03:12:08;6.53;;;3.43;;
13335;SDS011;6737;51.480;11.962;2023-04-19T03:14:34;6.00;;;3.37;;
13335;SDS011;6737;51.480;11.962;2023-04-19T03:17:01;5.17;;;3.20;;
13335;SDS011;6737;51.480;11.962;2023-04-19T03:19:27;5.90;;;3.37;;
13335;SDS011;6737;51.480;11.962;2023-04-19T03:21:53;7.23;;;3.40;;
13335;SDS011;6737;51.480;11.962;2023-04-19T03:24:19;8.00;;;3.87;;
13335;SDS011;6737;51.480;11.962;2023-04-19T03:26:53;6.17;;;3.50;;
13335;SDS011;6737;51.480;11.962;2023-04-19T03:29:19;6.13;;;3.20;;
13335;SDS011;6737;51.480;11.962;2023-04-19T03:31:45;4.77;;;2.90;;
13335;SDS011;6737;51.480;11.962;2023-04-19T03:34:12;5.00;;;3.27;;
13335;SDS011;6737;51.480;11.962;2023-04-19T03:36:38;5.47;;;3.20;;
13335;SDS011;6737;51.480;11.962;2023-04-19T03:39:04;6.40;;;3.47;;
13335;SDS011;6737;51.480;11.962;2023-04-19T03:41:31;5.80;;;3.27;;
13335;SDS011;6737;51.480;11.962;2023-04-19T03:43:57;6.07;;;3.07;;
13335;SDS011;6737;51.480;11.962;2023-04-19T03:46:23;6.57;;;3.33;;
13335;SDS011;6737;51.480;11.962;2023-04-19T03:48:49;5.80;;;3.00;;
13335;SDS011;6737;51.480;11.962;2023-04-19T03:51:16;6.03;;;2.83;;
13335;SDS011;6737;51.480;11.962;2023-04-19T03:53:42;5.20;;;3.00;;
13335;SDS011;6737;51.480;11.962;2023-04-19T03:56:08;4.57;;;3.00;;
13335;SDS011;6737;51.480;11.962;2023-04-19T03:58:34;4.00;;;2.80;;
13335;SDS011;6737;51.480;11.962;2023-04-19T04:01:01;7.23;;;3.30;;
13335;SDS011;6737;51.480;11.962;2023-04-19T04:03:27;9.77;;;2.90;;
13335;SDS011;6737;51.480;11.962;2023-04-19T04:05:53;4.50;;;3.03;;
13335;SDS011;6737;51.480;11.962;2023-04-19T04:08:19;5.57;;;2.97;;
13335;SDS011;6737;51.480;11.962;2023-04-19T04:10:45;7.17;;;2.93;;
13335;SDS011;6737;51.480;11.962;2023-04-19T04:13:10;5.67;;;3.00;;
13335;SDS011;6737;51.480;11.962;2023-04-19T04:15:36;8.80;;;3.20;;
13335;SDS011;6737;51.480;11.962;2023-04-19T04:18:02;4.87;;;3.07;;
13335;SDS011;6737;51.480;11.962;2023-04-19T04:20:27;3.90;;;3.00;;
13335;SDS011;6737;51.480;11.962;2023-04-19T04:22:53;5.20;;;3.10;;
13335;SDS011;6737;51.480;11.962;2023-04-19T04:25:19;4.63;;;2.93;;
13335;SDS011;6737;51.480;11.962;2023-04-19T04:27:45;7.70;;;3.07;;
13335;SDS011;6737;51.480;11.962;2023-04-19T04:30:11;6.93;;;2.87;;
13335;SDS011;6737;51.480;11.962;2023-04-19T04:32:38;4.07;;;2.70;;
13335;SDS011;6737;51.480;11.962;2023-04-19T04:35:05;4.63;;;2.70;;
13335;SDS011;6737;51.480;11.962;2023-04-19T04:37:32;5.50;;;2.63;;
13335;SDS011;6737;51.480;11.962;2023-04-19T04:39:59;5.00;;;2.70;;
13335;SDS011;6737;51.480;11.962;2023-04-19T04:42:25;5.93;;;3.33;;
13335;SDS011;6737;51.480;11.962;2023-04-19T04:44:51;3.77;;;2.67;;
13335;SDS011;6737;51.480;11.962;2023-04-19T04:47:19;6.33;;;2.63;;
13335;SDS011;6737;51.480;11.962;2023-04-19T04:49:45;4.57;;;2.60;;
13335;SDS011;6737;51.480;11.962;2023-04-19T04:52:11;3.00;;;2.40;;
13335;SDS011;6737;51.480;11.962;2023-04-19T04:54:37;5.27;;;2.40;;
13335;SDS011;6737;51.480;11.962;2023-04-19T04:57:02;5.50;;;2.70;;
13335;SDS011;6737;51.480;11.962;2023-04-19T04:59:28;5.63;;;2.40;;
13335;SDS011;6737;51.480;11.962;2023-04-19T05:01:54;6.27;;;2.40;;
13335;SDS011;6737;51.480;11.962;2023-04-19T05:04:20;5.90;;;2.70;;
13335;SDS011;6737;51.480;11.962;2023-04-19T05:06:45;3.83;;;2.63;;
13335;SDS011;6737;51.480;11.962;2023-04-19T05:09:11;4.50;;;2.60;;
13335;SDS011;6737;51.480;11.962;2023-04-19T05:11:37;6.23;;;2.80;;
13335;SDS011;6737;51.480;11.962;2023-04-19T05:14:03;5.50;;;2.57;;
13335;SDS011;6737;51.480;11.962;2023-04-19T05:16:28;3.87;;;2.50;;
13335;SDS011;6737;51.480;11.962;2023-04-19T05:18:54;5.40;;;2.37;;
13335;SDS011;6737;51.480;11.962;2023-04-19T05:21:20;8.43;;;2.70;;
13335;SDS011;6737;51.480;11.962;2023-04-19T05:23:46;4.17;;;2.43;;
13335;SDS011;6737;51.480;11.962;2023-04-19T05:26:13;5.50;;;2.33;;
13335;SDS011;6737;51.480;11.962;2023-04-19T05:28:40;4.43;;;2.43;;
13335;SDS011;6737;51.480;11.962;2023-04-19T05:31:09;3.67;;;2.30;;
13335;SDS011;6737;51.480;11.962;2023-04-19T05:33:36;4.30;;;2.47;;
13335;SDS011;6737;51.480;11.962;2023-04-19T05:36:02;3.87;;;2.40;;
13335;SDS011;6737;51.480;11.962;2023-04-19T05:38:28;7.90;;;2.87;;
13335;SDS011;6737;51.480;11.962;2023-04-19T05:40:54;4.07;;;2.30;;
13335;SDS011;6737;51.480;11.962;2023-04-19T05:43:19;3.23;;;2.27;;
13335;SDS011;6737;51.480;11.962;2023-04-19T05:45:46;3.23;;;2.33;;
13335;SDS011;6737;51.480;11.962;2023-04-19T05:48:12;5.03;;;2.57;;
13335;SDS011;6737;51.480;11.962;2023-04-19T05:50:38;6.03;;;2.30;;
13335;SDS011;6737;51.480;11.962;2023-04-19T05:53:03;7.17;;;2.53;;
13335;SDS011;6737;51.480;11.962;2023-04-19T05:55:29;3.80;;;2.30;;
13335;SDS011;6737;51.480;11.962;2023-04-19T05:57:56;3.73;;;2.30;;
13335;SDS011;6737;51.480;11.962;2023-04-19T06:00:25;3.37;;;2.50;;
13335;SDS011;6737;51.480;11.962;2023-04-19T06:02:52;5.13;;;2.40;;
13335;SDS011;6737;51.480;11.962;2023-04-19T06:05:18;5.17;;;2.50;;
13335;SDS011;6737;51.480;11.962;2023-04-19T06:07:44;4.60;;;2.80;;
13335;SDS011;6737;51.480;11.962;2023-04-19T06:10:09;4.83;;;2.10;;
13335;SDS011;6737;51.480;11.962;2023-04-19T06:12:35;5.13;;;2.20;;
13335;SDS011;6737;51.480;11.962;2023-04-19T06:15:01;3.80;;;1.97;;
13335;SDS011;6737;51.480;11.962;2023-04-19T06:17:27;5.00;;;2.20;;
13335;SDS011;6737;51.480;11.962;2023-04-19T06:19:53;3.93;;;2.23;;
13335;SDS011;6737;51.480;11.962;2023-04-19T06:22:20;3.90;;;2.20;;
13335;SDS011;6737;51.480;11.962;2023-04-19T06:24:46;4.97;;;2.20;;
13335;SDS011;6737;51.480;11.962;2023-04-19T06:27:14;4.27;;;2.10;;
13335;SDS011;6737;51.480;11.962;2023-04-19T06:29:41;5.73;;;2.20;;
13335;SDS011;6737;51.480;11.962;2023-04-19T06:32:07;5.27;;;2.30;;
13335;SDS011;6737;51.480;11.962;2023-04-19T06:34:35;4.30;;;2.00;;
13335;SDS011;6737;51.480;11.962;2023-04-19T06:37:01;4.27;;;2.37;;
13335;SDS011;6737;51.480;11.962;2023-04-19T06:39:26;5.13;;;2.20;;
13335;SDS011;6737;51.480;11.962;2023-04-19T06:41:52;5.37;;;2.23;;
13335;SDS011;6737;51.480;11.962;2023-04-19T06:44:18;4.37;;;2.13;;
13335;SDS011;6737;51.480;11.962;2023-04-19T06:46:44;5.03;;;2.13;;
13335;SDS011;6737;51.480;11.962;2023-04-19T06:49:10;6.33;;;2.60;;
13335;SDS011;6737;51.480;11.962;2023-04-19T06:51:37;3.30;;;2.27;;
13335;SDS011;6737;51.480;11.962;2023-04-19T06:54:03;5.67;;;2.20;;
13335;SDS011;6737;51.480;11.962;2023-04-19T06:56:38;3.43;;;1.90;;
13335;SDS011;6737;51.480;11.962;2023-04-19T06:59:06;3.57;;;2.10;;
13335;SDS011;6737;51.480;11.962;2023-04-19T07:01:32;4.37;;;2.40;;
13335;SDS011;6737;51.480;11.962;2023-04-19T07:03:58;4.57;;;2.40;;
13335;SDS011;6737;51.480;11.962;2023-04-19T07:06:23;4.40;;;1.97;;
13335;SDS011;6737;51.480;11.962;2023-04-19T07:08:51;5.23;;;2.30;;
13335;SDS011;6737;51.480;11.962;2023-04-19T07:11:16;3.90;;;2.20;;
13335;SDS011;6737;51.480;11.962;2023-04-19T07:13:42;4.73;;;2.20;;
13335;SDS011;6737;51.480;11.962;2023-04-19T07:16:08;6.17;;;2.23;;
13335;SDS011;6737;51.480;11.962;2023-04-19T07:18:34;5.80;;;1.83;;
13335;SDS011;6737;51.480;11.962;2023-04-19T07:20:59;5.00;;;2.20;;
13335;SDS011;6737;51.480;11.962;2023-04-19T07:23:25;2.80;;;1.90;;
13335;SDS011;6737;51.480;11.962;2023-04-19T07:25:51;4.53;;;2.20;;
13335;SDS011;6737;51.480;11.962;2023-04-19T07:28:17;3.60;;;2.27;;
13335;SDS011;6737;51.480;11.962;2023-04-19T07:30:42;4.33;;;2.13;;
13335;SDS011;6737;51.480;11.962;2023-04-19T07:33:10;4.67;;;2.30;;
13335;SDS011;6737;51.480;11.962;2023-04-19T07:35:37;3.87;;;2.30;;
13335;SDS011;6737;51.480;11.962;2023-04-19T07:38:04;6.43;;;2.20;;
13335;SDS011;6737;51.480;11.962;2023-04-19T07:40:30;3.73;;;1.80;;
13335;SDS011;6737;51.480;11.962;2023-04-19T07:42:56;8.13;;;2.10;;
13335;SDS011;6737;51.480;11.962;2023-04-19T07:45:22;7.27;;;2.40;;
13335;SDS011;6737;51.480;11.962;2023-04-19T07:47:47;3.97;;;2.13;;
13335;SDS011;6737;51.480;11.962;2023-04-19T07:50:13;4.90;;;2.23;;
13335;SDS011;6737;51.480;11.962;2023-04-19T07:52:40;6.20;;;2.00;;
13335;SDS011;6737;51.480;11.962;2023-04-19T07:55:05;3.70;;;2.10;;
13335;SDS011;6737;51.480;11.962;2023-04-19T07:57:32;5.03;;;2.43;;
13335;SDS011;6737;51.480;11.962;2023-04-19T07:59:59;9.23;;;3.10;;
13335;SDS011;6737;51.480;11.962;2023-04-19T08:02:26;3.90;;;2.20;;
13335;SDS011;6737;51.480;11.962;2023-04-19T08:04:52;5.90;;;2.40;;
13335;SDS011;6737;51.480;11.962;2023-04-19T08:07:18;5.77;;;2.50;;
13335;SDS011;6737;51.480;11.962;2023-04-19T08:09:44;4.00;;;2.20;;
13335;SDS011;6737;51.480;11.962;2023-04-19T08:12:10;4.07;;;2.27;;
13335;SDS011;6737;51.480;11.962;2023-04-19T08:14:35;4.50;;;2.37;;
13335;SDS011;6737;51.480;11.962;2023-04-19T08:17:03;5.80;;;2.27;;
13335;SDS011;6737;51.480;11.962;2023-04-19T08:19:29;5.13;;;2.53;;
13335;SDS011;6737;51.480;11.962;2023-04-19T08:21:55;6.00;;;2.50;;
13335;SDS011;6737;51.480;11.962;2023-04-19T08:24:21;4.97;;;2.27;;
13335;SDS011;6737;51.480;11.962;2023-04-19T08:26:47;3.67;;;2.27;;
13335;SDS011;6737;51.480;11.962;2023-04-19T08:29:20;6.37;;;2.20;;
13335;SDS011;6737;51.480;11.962;2023-04-19T08:31:47;4.83;;;2.40;;
13335;SDS011;6737;51.480;11.962;2023-04-19T08:34:13;4.80;;;2.20;;
13335;SDS011;6737;51.480;11.962;2023-04-19T08:36:39;6.83;;;2.50;;
13335;SDS011;6737;51.480;11.962;2023-04-19T08:39:05;5.53;;;2.13;;
13335;SDS011;6737;51.480;11.962;2023-04-19T08:41:30;4.80;;;2.30;;
13335;SDS011;6737;51.480;11.962;2023-04-19T08:43:56;5.60;;;2.10;;
13335;SDS011;6737;51.480;11.962;2023-04-19T08:46:23;3.80;;;2.13;;
13335;SDS011;6737;51.480;11.962;2023-04-19T08:48:51;3.27;;;2.30;;
13335;SDS011;6737;51.480;11.962;2023-04-19T08:51:17;7.07;;;2.17;;
13335;SDS011;6737;51.480;11.962;2023-04-19T08:53:44;3.87;;;2.20;;
13335;SDS011;6737;51.480;11.962;2023-04-19T08:56:12;3.90;;;2.07;;
13335;SDS011;6737;51.480;11.962;2023-04-19T08:58:38;5.37;;;2.10;;
13335;SDS011;6737;51.480;11.962;2023-04-19T09:01:05;3.43;;;1.97;;
13335;SDS011;6737;51.480;11.962;2023-04-19T09:03:33;6.03;;;2.10;;
13335;SDS011;6737;51.480;11.962;2023-04-19T09:06:01;3.93;;;1.97;;
13335;SDS011;6737;51.480;11.962;2023-04-19T09:08:28;5.07;;;2.20;;
13335;SDS011;6737;51.480;11.962;2023-04-19T09:10:59;4.30;;;2.20;;
13335;SDS011;6737;51.480;11.962;2023-04-19T09:13:28;5.20;;;2.43;;
13335;SDS011;6737;51.480;11.962;2023-04-19T09:15:55;4.40;;;2.20;;
13335;SDS011;6737;51.480;11.962;2023-04-19T09:18:23;3.90;;;2.20;;
13335;SDS011;6737;51.480;11.962;2023-04-19T09:20:49;4.57;;;2.40;;
13335;SDS011;6737;51.480;11.962;2023-04-19T09:23:21;3.30;;;2.00;;
13335;SDS011;6737;51.480;11.962;2023-04-19T09:25:53;3.10;;;1.77;;
13335;SDS011;6737;51.480;11.962;2023-04-19T09:28:29;4.03;;;2.20;;
13335;SDS011;6737;51.480;11.962;2023-04-19T09:30:55;2.73;;;2.10;;
13335;SDS011;6737;51.480;11.962;2023-04-19T09:33:42;3.73;;;2.10;;
13335;SDS011;6737;51.480;11.962;2023-04-19T09:36:09;4.60;;;2.33;;
13335;SDS011;6737;51.480;11.962;2023-04-19T09:38:48;4.53;;;2.20;;
13335;SDS011;6737;51.480;11.962;2023-04-19T09:41:14;4.90;;;2.40;;
13335;SDS011;6737;51.480;11.962;2023-04-19T09:43:41;2.27;;;1.93;;
13335;SDS011;6737;51.480;11.962;2023-04-19T09:46:07;5.30;;;2.03;;
13335;SDS011;6737;51.480;11.962;2023-04-19T09:48:33;6.33;;;2.30;;
13335;SDS011;6737;51.480;11.962;2023-04-19T09:51:01;6.10;;;2.40;;
13335;SDS011;6737;51.480;11.962;2023-04-19T09:53:27;5.00;;;2.40;;
13335;SDS011;6737;51.480;11.962;2023-04-19T09:55:54;3.43;;;2.10;;
13335;SDS011;6737;51.480;11.962;2023-04-19T09:58:20;4.00;;;2.20;;
13335;SDS011;6737;51.480;11.962;2023-04-19T10:00:47;4.97;;;2.37;;
13335;SDS011;6737;51.480;11.962;2023-04-19T10:03:14;3.50;;;2.20;;
13335;SDS011;6737;51.480;11.962;2023-04-19T10:05:42;4.63;;;2.20;;
13335;SDS011;6737;51.480;11.962;2023-04-19T10:08:11;2.90;;;2.20;;
13335;SDS011;6737;51.480;11.962;2023-04-19T10:10:40;5.60;;;2.40;;
13335;SDS011;6737;51.480;11.962;2023-04-19T10:13:08;3.87;;;2.20;;
13335;SDS011;6737;51.480;11.962;2023-04-19T10:15:37;3.93;;;2.00;;
13335;SDS011;6737;51.480;11.962;2023-04-19T10:18:06;5.37;;;2.40;;
13335;SDS011;6737;51.480;11.962;2023-04-19T10:23:14;4.50;;;2.30;;
13335;SDS011;6737;51.480;11.962;2023-04-19T10:25:44;3.20;;;2.00;;
13335;SDS011;6737;51.480;11.962;2023-04-19T10:28:12;4.90;;;2.27;;
13335;SDS011;6737;51.480;11.962;2023-04-19T10:30:51;4.57;;;2.03;;
13335;SDS011;6737;51.480;11.962;2023-04-19T10:33:26;3.53;;;2.17;;
13335;SDS011;6737;51.480;11.962;2023-04-19T10:35:59;3.67;;;2.13;;
13335;SDS011;6737;51.480;11.962;2023-04-19T10:38:44;3.63;;;2.10;;
13335;SDS011;6737;51.480;11.962;2023-04-19T10:41:20;6.50;;;2.10;;
13335;SDS011;6737;51.480;11.962;2023-04-19T10:43:47;3.00;;;2.07;;
13335;SDS011;6737;51.480;11.962;2023-04-19T10:49:02;5.60;;;2.20;;
13335;SDS011;6737;51.480;11.962;2023-04-19T10:51:31;4.17;;;2.17;;
13335;SDS011;6737;51.480;11.962;2023-04-19T10:54:01;3.90;;;2.00;;
13335;SDS011;6737;51.480;11.962;2023-04-19T11:14:26;3.10;;;1.80;;
13335;SDS011;6737;51.480;11.962;2023-04-19T11:16:58;3.57;;;2.00;;
13335;SDS011;6737;51.480;11.962;2023-04-19T11:19:25;3.97;;;1.97;;
13335;SDS011;6737;51.480;11.962;2023-04-19T11:21:50;3.37;;;2.10;;
13335;SDS011;6737;51.480;11.962;2023-04-19T11:24:16;4.90;;;2.10;;
13335;SDS011;6737;51.480;11.962;2023-04-19T11:26:45;5.43;;;2.20;;
13335;SDS011;6737;51.480;11.962;2023-04-19T11:29:14;2.87;;;1.90;;
13335;SDS011;6737;51.480;11.962;2023-04-19T11:31:42;6.43;;;1.83;;
13335;SDS011;6737;51.480;11.962;2023-04-19T11:34:10;3.93;;;2.20;;
13335;SDS011;6737;51.480;11.962;2023-04-19T11:36:46;3.07;;;1.87;;
13335;SDS011;6737;51.480;11.962;2023-04-19T11:39:13;3.37;;;2.00;;
13335;SDS011;6737;51.480;11.962;2023-04-19T11:41:39;3.83;;;2.10;;
13335;SDS011;6737;51.480;11.962;2023-04-19T11:44:14;3.20;;;1.97;;
13335;SDS011;6737;51.480;11.962;2023-04-19T11:46:55;4.37;;;2.00;;
13335;SDS011;6737;51.480;11.962;2023-04-19T11:49:27;3.03;;;2.33;;
13335;SDS011;6737;51.480;11.962;2023-04-19T11:52:00;3.63;;;2.03;;
13335;SDS011;6737;51.480;11.962;2023-04-19T11:54:30;3.77;;;2.10;;
13335;SDS011;6737;51.480;11.962;2023-04-19T11:56:57;3.97;;;2.10;;
13335;SDS011;6737;51.480;11.962;2023-04-19T11:59:27;3.47;;;2.37;;
13335;SDS011;6737;51.480;11.962;2023-04-19T12:01:53;6.07;;;2.37;;
13335;SDS011;6737;51.480;11.962;2023-04-19T12:04:19;8.80;;;2.40;;
13335;SDS011;6737;51.480;11.962;2023-04-19T12:06:54;4.03;;;2.03;;
13335;SDS011;6737;51.480;11.962;2023-04-19T12:09:23;4.10;;;2.37;;
13335;SDS011;6737;51.480;11.962;2023-04-19T12:11:49;3.17;;;2.30;;
13335;SDS011;6737;51.480;11.962;2023-04-19T12:14:16;4.40;;;2.23;;
13335;SDS011;6737;51.480;11.962;2023-04-19T12:16:44;3.47;;;2.30;;
13335;SDS011;6737;51.480;11.962;2023-04-19T12:19:16;3.43;;;2.13;;
13335;SDS011;6737;51.480;11.962;2023-04-19T12:21:44;4.73;;;2.60;;
13335;SDS011;6737;51.480;11.962;2023-04-19T12:24:13;2.97;;;2.10;;
13335;SDS011;6737;51.480;11.962;2023-04-19T12:26:52;3.30;;;2.47;;
13335;SDS011;6737;51.480;11.962;2023-04-19T12:29:19;4.70;;;2.37;;
13335;SDS011;6737;51.480;11.962;2023-04-19T12:31:45;3.13;;;2.30;;
13335;SDS011;6737;51.480;11.962;2023-04-19T12:34:11;7.53;;;2.40;;
13335;SDS011;6737;51.480;11.962;2023-04-19T12:36:36;5.10;;;2.50;;
13335;SDS011;6737;51.480;11.962;2023-04-19T12:39:02;6.77;;;2.50;;
13335;SDS011;6737;51.480;11.962;2023-04-19T12:41:28;5.63;;;2.60;;
13335;SDS011;6737;51.480;11.962;2023-04-19T12:43:54;5.57;;;2.70;;
13335;SDS011;6737;51.480;11.962;2023-04-19T12:46:19;4.63;;;2.50;;
13335;SDS011;6737;51.480;11.962;2023-04-19T12:48:45;6.97;;;2.50;;
13335;SDS011;6737;51.480;11.962;2023-04-19T12:51:11;3.07;;;2.33;;
13335;SDS011;6737;51.480;11.962;2023-04-19T12:53:37;5.60;;;2.47;;
13335;SDS011;6737;51.480;11.962;2023-04-19T12:56:02;3.80;;;2.30;;
13335;SDS011;6737;51.480;11.962;2023-04-19T12:58:28;4.20;;;2.47;;
13335;SDS011;6737;51.480;11.962;2023-04-19T13:00:56;4.10;;;2.27;;
13335;SDS011;6737;51.480;11.962;2023-04-19T13:03:22;5.37;;;2.33;;
13335;SDS011;6737;51.480;11.962;2023-04-19T13:05:47;4.33;;;2.47;;
13335;SDS011;6737;51.480;11.962;2023-04-19T13:08:13;5.60;;;2.50;;
13335;SDS011;6737;51.480;11.962;2023-04-19T13:10:39;4.27;;;2.40;;
13335;SDS011;6737;51.480;11.962;2023-04-19T13:13:05;5.07;;;2.47;;
13335;SDS011;6737;51.480;11.962;2023-04-19T13:15:30;3.53;;;2.30;;
13335;SDS011;6737;51.480;11.962;2023-04-19T13:17:56;5.37;;;2.47;;
13335;SDS011;6737;51.480;11.962;2023-04-19T13:20:22;5.10;;;2.77;;
13335;SDS011;6737;51.480;11.962;2023-04-19T13:22:48;5.80;;;2.00;;
13335;SDS011;6737;51.480;11.962;2023-04-19T13:25:14;6.40;;;2.00;;
13335;SDS011;6737;51.480;11.962;2023-04-19T13:27:39;3.33;;;2.03;;
13335;SDS011;6737;51.480;11.962;2023-04-19T13:30:05;5.07;;;2.33;;
13335;SDS011;6737;51.480;11.962;2023-04-19T13:32:32;4.40;;;2.13;;
13335;SDS011;6737;51.480;11.962;2023-04-19T13:34:58;6.13;;;2.50;;
13335;SDS011;6737;51.480;11.962;2023-04-19T13:37:24;5.23;;;2.27;;
13335;SDS011;6737;51.480;11.962;2023-04-19T13:39:50;4.00;;;2.20;;
13335;SDS011;6737;51.480;11.962;2023-04-19T13:42:15;6.63;;;2.27;;
13335;SDS011;6737;51.480;11.962;2023-04-19T13:44:43;5.30;;;2.17;;
13335;SDS011;6737;51.480;11.962;2023-04-19T13:47:09;4.03;;;2.20;;
13335;SDS011;6737;51.480;11.962;2023-04-19T13:49:35;6.50;;;2.40;;
13335;SDS011;6737;51.480;11.962;2023-04-19T13:52:00;3.67;;;2.37;;
13335;SDS011;6737;51.480;11.962;2023-04-19T13:54:26;6.43;;;2.40;;
13335;SDS011;6737;51.480;11.962;2023-04-19T13:56:52;3.20;;;1.97;;
13335;SDS011;6737;51.480;11.962;2023-04-19T13:59:18;6.67;;;2.30;;
13335;SDS011;6737;51.480;11.962;2023-04-19T14:01:44;3.33;;;2.30;;
13335;SDS011;6737;51.480;11.962;2023-04-19T14:04:10;4.27;;;2.40;;
13335;SDS011;6737;51.480;11.962;2023-04-19T14:06:36;4.57;;;2.00;;
13335;SDS011;6737;51.480;11.962;2023-04-19T14:09:02;4.13;;;2.30;;
13335;SDS011;6737;51.480;11.962;2023-04-19T14:11:28;4.10;;;2.20;;
13335;SDS011;6737;51.480;11.962;2023-04-19T14:13:54;4.50;;;2.60;;
13335;SDS011;6737;51.480;11.962;2023-04-19T14:16:20;2.80;;;2.10;;
13335;SDS011;6737;51.480;11.962;2023-04-19T14:18:48;3.67;;;2.20;;
13335;SDS011;6737;51.480;11.962;2023-04-19T14:21:14;4.70;;;2.27;;
13335;SDS011;6737;51.480;11.962;2023-04-19T14:23:39;3.17;;;2.17;;
13335;SDS011;6737;51.480;11.962;2023-04-19T14:26:05;4.53;;;2.20;;
13335;SDS011;6737;51.480;11.962;2023-04-19T14:28:31;3.17;;;1.97;;
13335;SDS011;6737;51.480;11.962;2023-04-19T14:30:57;3.97;;;2.10;;
13335;SDS011;6737;51.480;11.962;2023-04-19T14:33:23;5.13;;;2.10;;
13335;SDS011;6737;51.480;11.962;2023-04-19T14:35:49;5.90;;;2.37;;
13335;SDS011;6737;51.480;11.962;2023-04-19T14:38:14;4.33;;;2.20;;
13335;SDS011;6737;51.480;11.962;2023-04-19T14:40:40;5.83;;;2.20;;
13335;SDS011;6737;51.480;11.962;2023-04-19T14:43:06;6.07;;;2.27;;
13335;SDS011;6737;51.480;11.962;2023-04-19T14:45:31;5.53;;;2.37;;
13335;SDS011;6737;51.480;11.962;2023-04-19T14:47:57;4.50;;;2.33;;
13335;SDS011;6737;51.480;11.962;2023-04-19T14:50:23;2.87;;;2.23;;
13335;SDS011;6737;51.480;11.962;2023-04-19T14:52:49;5.20;;;2.60;;
13335;SDS011;6737;51.480;11.962;2023-04-19T14:55:14;3.93;;;2.33;;
13335;SDS011;6737;51.480;11.962;2023-04-19T14:57:40;4.83;;;2.40;;
13335;SDS011;6737;51.480;11.962;2023-04-19T15:00:06;3.77;;;2.40;;
13335;SDS011;6737;51.480;11.962;2023-04-19T15:02:33;5.43;;;2.60;;
13335;SDS011;6737;51.480;11.962;2023-04-19T15:04:58;3.60;;;2.60;;
13335;SDS011;6737;51.480;11.962;2023-04-19T15:07:24;4.37;;;2.57;;
13335;SDS011;6737;51.480;11.962;2023-04-19T15:09:50;5.77;;;2.80;;